CheckWX is a tool to help pilots better visualize weather data.  It is not intended as a substitute for an official pre-flight weather briefing.

08:59:35 UTC

EGSC METAR
Cambridge Airport
Cambridge, United Kingdom
Current

40 mins ago

EGSC 220820Z 21007KT 9000 BKN013 10/06 Q1029
Observed
Mar-22 @ 08:20 UTC
Wind
  • 210° at 7 KTS
Visibility
8,996 meters
Flight Rules
MVFR
Cloud Levels
  • Broken at 1,300' AGL
Temperature
10°C / 50°F
Dewpoint
C / 43°F
Humidity
76%
Altimeter
30.38" Hg
Pressure
1028.91 hPa
Previous

1 hour ago

EGSC 220750Z 22007KT 9000 BKN015 10/06 Q1028
Observed
Mar-22 @ 07:50 UTC
Wind
  • 220° at 7 KTS
Visibility
8,996 meters
Flight Rules
MVFR
Cloud Levels
  • Broken at 1,500' AGL
Temperature
10°C / 50°F
Dewpoint
C / 43°F
Humidity
76%
Altimeter
30.35" Hg
Pressure
1027.92 hPa
Previous

15 hours ago

EGSC 211750Z 23005KT 9999 FEW021 12/08 Q1032
Observed
Mar-21 @ 17:50 UTC
Wind
  • 230° at 5 KTS
Visibility
10,000+ meters
Flight Rules
VFR
Cloud Levels
  • Few at 2,100' AGL
Temperature
12°C / 54°F
Dewpoint
C / 46°F
Humidity
77%
Altimeter
30.47" Hg
Pressure
1031.91 hPa